sensor_id;sensor_type;location;lat;lon;timestamp;P1;durP1;ratioP1;P2;durP2;ratioP2
42906;SDS011;28552;51.146;6.576;2022-08-04T00:09:35;7.10;;;1.10;;
42906;SDS011;28552;51.146;6.576;2022-08-04T00:12:42;3.67;;;1.33;;
42906;SDS011;28552;51.146;6.576;2022-08-04T00:15:52;1.95;;;0.85;;
42906;SDS011;28552;51.146;6.576;2022-08-04T00:18:57;2.70;;;0.80;;
42906;SDS011;28552;51.146;6.576;2022-08-04T00:22:02;4.00;;;1.10;;
42906;SDS011;28552;51.146;6.576;2022-08-04T00:25:05;4.28;;;0.93;;
42906;SDS011;28552;51.146;6.576;2022-08-04T00:28:06;3.65;;;0.93;;
42906;SDS011;28552;51.146;6.576;2022-08-04T00:31:09;3.65;;;1.13;;
42906;SDS011;28552;51.146;6.576;2022-08-04T00:34:10;3.38;;;1.02;;
42906;SDS011;28552;51.146;6.576;2022-08-04T00:37:12;3.00;;;0.93;;
42906;SDS011;28552;51.146;6.576;2022-08-04T00:53:30;3.15;;;1.00;;
42906;SDS011;28552;51.146;6.576;2022-08-04T01:00:11;1.95;;;0.98;;
42906;SDS011;28552;51.146;6.576;2022-08-04T01:03:16;3.72;;;0.95;;
42906;SDS011;28552;51.146;6.576;2022-08-04T01:09:51;4.78;;;1.10;;
42906;SDS011;28552;51.146;6.576;2022-08-04T01:13:07;2.55;;;0.98;;
42906;SDS011;28552;51.146;6.576;2022-08-04T01:16:11;2.40;;;1.00;;
42906;SDS011;28552;51.146;6.576;2022-08-04T01:29:07;5.05;;;1.15;;
42906;SDS011;28552;51.146;6.576;2022-08-04T01:32:12;4.60;;;1.23;;
42906;SDS011;28552;51.146;6.576;2022-08-04T01:35:23;8.80;;;1.30;;
42906;SDS011;28552;51.146;6.576;2022-08-04T01:38:28;3.58;;;1.23;;
42906;SDS011;28552;51.146;6.576;2022-08-04T01:41:38;2.40;;;1.00;;
42906;SDS011;28552;51.146;6.576;2022-08-04T01:44:39;2.35;;;1.00;;
42906;SDS011;28552;51.146;6.576;2022-08-04T01:47:42;8.35;;;1.45;;
42906;SDS011;28552;51.146;6.576;2022-08-04T01:50:49;2.58;;;0.93;;
42906;SDS011;28552;51.146;6.576;2022-08-04T01:53:51;3.15;;;0.95;;
42906;SDS011;28552;51.146;6.576;2022-08-04T01:56:53;3.10;;;0.90;;
42906;SDS011;28552;51.146;6.576;2022-08-04T01:59:55;2.60;;;1.10;;
42906;SDS011;28552;51.146;6.576;2022-08-04T02:02:57;2.25;;;1.05;;
42906;SDS011;28552;51.146;6.576;2022-08-04T02:06:03;2.97;;;0.90;;
42906;SDS011;28552;51.146;6.576;2022-08-04T02:09:37;5.57;;;1.23;;
42906;SDS011;28552;51.146;6.576;2022-08-04T02:19:32;3.33;;;1.23;;
42906;SDS011;28552;51.146;6.576;2022-08-04T02:22:39;3.45;;;1.05;;
42906;SDS011;28552;51.146;6.576;2022-08-04T02:25:47;5.85;;;1.00;;
42906;SDS011;28552;51.146;6.576;2022-08-04T02:29:02;3.50;;;1.02;;
42906;SDS011;28552;51.146;6.576;2022-08-04T02:32:13;6.70;;;1.23;;
42906;SDS011;28552;51.146;6.576;2022-08-04T02:35:26;7.72;;;1.13;;
42906;SDS011;28552;51.146;6.576;2022-08-04T02:41:53;4.93;;;1.15;;
42906;SDS011;28552;51.146;6.576;2022-08-04T02:44:56;3.25;;;1.10;;
42906;SDS011;28552;51.146;6.576;2022-08-04T02:47:57;5.90;;;1.50;;
42906;SDS011;28552;51.146;6.576;2022-08-04T02:51:02;3.92;;;1.50;;
42906;SDS011;28552;51.146;6.576;2022-08-04T02:54:05;6.47;;;0.95;;
42906;SDS011;28552;51.146;6.576;2022-08-04T02:57:07;3.05;;;0.90;;
42906;SDS011;28552;51.146;6.576;2022-08-04T03:00:11;3.53;;;0.90;;
42906;SDS011;28552;51.146;6.576;2022-08-04T03:13:48;3.28;;;1.00;;
42906;SDS011;28552;51.146;6.576;2022-08-04T03:17:20;4.40;;;1.10;;
42906;SDS011;28552;51.146;6.576;2022-08-04T03:34:23;4.18;;;1.20;;
42906;SDS011;28552;51.146;6.576;2022-08-04T03:41:23;6.40;;;1.30;;
42906;SDS011;28552;51.146;6.576;2022-08-04T03:55:13;4.00;;;1.30;;
42906;SDS011;28552;51.146;6.576;2022-08-04T03:58:30;3.08;;;1.00;;
42906;SDS011;28552;51.146;6.576;2022-08-04T04:08:53;5.90;;;1.20;;
42906;SDS011;28552;51.146;6.576;2022-08-04T04:19:00;4.32;;;1.17;;
42906;SDS011;28552;51.146;6.576;2022-08-04T04:22:21;2.88;;;1.33;;
42906;SDS011;28552;51.146;6.576;2022-08-04T04:32:09;4.10;;;1.25;;
42906;SDS011;28552;51.146;6.576;2022-08-04T04:38:20;5.45;;;1.25;;
42906;SDS011;28552;51.146;6.576;2022-08-04T04:41:35;7.13;;;1.50;;
42906;SDS011;28552;51.146;6.576;2022-08-04T04:48:03;2.95;;;1.33;;
42906;SDS011;28552;51.146;6.576;2022-08-04T04:51:11;3.80;;;1.52;;
42906;SDS011;28552;51.146;6.576;2022-08-04T04:57:21;7.30;;;1.48;;
42906;SDS011;28552;51.146;6.576;2022-08-04T05:00:26;3.83;;;1.40;;
42906;SDS011;28552;51.146;6.576;2022-08-04T05:07:49;4.45;;;1.45;;
42906;SDS011;28552;51.146;6.576;2022-08-04T05:10:40;4.38;;;1.50;;
42906;SDS011;28552;51.146;6.576;2022-08-04T05:14:01;4.82;;;1.30;;
42906;SDS011;28552;51.146;6.576;2022-08-04T05:17:16;5.38;;;1.70;;
42906;SDS011;28552;51.146;6.576;2022-08-04T05:20:22;7.40;;;1.75;;
42906;SDS011;28552;51.146;6.576;2022-08-04T05:23:28;4.03;;;1.40;;
42906;SDS011;28552;51.146;6.576;2022-08-04T05:26:32;3.15;;;1.13;;
42906;SDS011;28552;51.146;6.576;2022-08-04T05:29:41;4.95;;;1.20;;
42906;SDS011;28552;51.146;6.576;2022-08-04T05:32:55;3.60;;;1.30;;
42906;SDS011;28552;51.146;6.576;2022-08-04T05:36:02;3.25;;;1.30;;
42906;SDS011;28552;51.146;6.576;2022-08-04T05:39:10;4.93;;;1.30;;
42906;SDS011;28552;51.146;6.576;2022-08-04T05:42:16;9.52;;;1.60;;
42906;SDS011;28552;51.146;6.576;2022-08-04T05:45:17;7.95;;;1.55;;
42906;SDS011;28552;51.146;6.576;2022-08-04T05:48:18;4.63;;;1.50;;
42906;SDS011;28552;51.146;6.576;2022-08-04T05:51:19;6.35;;;1.40;;
42906;SDS011;28552;51.146;6.576;2022-08-04T05:54:20;8.40;;;1.67;;
42906;SDS011;28552;51.146;6.576;2022-08-04T05:57:22;4.18;;;1.75;;
42906;SDS011;28552;51.146;6.576;2022-08-04T06:00:24;4.90;;;1.65;;
42906;SDS011;28552;51.146;6.576;2022-08-04T06:03:28;6.50;;;1.65;;
42906;SDS011;28552;51.146;6.576;2022-08-04T06:06:30;4.15;;;1.55;;
42906;SDS011;28552;51.146;6.576;2022-08-04T06:09:31;5.38;;;1.55;;
42906;SDS011;28552;51.146;6.576;2022-08-04T06:12:36;3.83;;;1.27;;
42906;SDS011;28552;51.146;6.576;2022-08-04T06:15:48;6.45;;;1.42;;
42906;SDS011;28552;51.146;6.576;2022-08-04T06:18:50;6.68;;;1.50;;
42906;SDS011;28552;51.146;6.576;2022-08-04T06:21:53;4.68;;;1.90;;
42906;SDS011;28552;51.146;6.576;2022-08-04T06:24:55;5.65;;;1.85;;
42906;SDS011;28552;51.146;6.576;2022-08-04T06:27:59;3.30;;;1.13;;
42906;SDS011;28552;51.146;6.576;2022-08-04T06:31:01;6.18;;;1.65;;
42906;SDS011;28552;51.146;6.576;2022-08-04T06:34:04;4.10;;;1.67;;
42906;SDS011;28552;51.146;6.576;2022-08-04T06:37:07;4.32;;;1.40;;
42906;SDS011;28552;51.146;6.576;2022-08-04T06:40:09;3.30;;;1.40;;
42906;SDS011;28552;51.146;6.576;2022-08-04T06:43:12;5.30;;;1.40;;
42906;SDS011;28552;51.146;6.576;2022-08-04T06:46:12;6.85;;;2.20;;
42906;SDS011;28552;51.146;6.576;2022-08-04T06:49:14;5.72;;;1.65;;
42906;SDS011;28552;51.146;6.576;2022-08-04T06:52:17;4.50;;;1.60;;
42906;SDS011;28552;51.146;6.576;2022-08-04T06:55:19;4.55;;;1.35;;
42906;SDS011;28552;51.146;6.576;2022-08-04T06:58:21;3.03;;;1.30;;
42906;SDS011;28552;51.146;6.576;2022-08-04T07:01:22;3.03;;;1.30;;
42906;SDS011;28552;51.146;6.576;2022-08-04T07:04:24;3.40;;;1.27;;
42906;SDS011;28552;51.146;6.576;2022-08-04T07:07:25;3.35;;;1.20;;
42906;SDS011;28552;51.146;6.576;2022-08-04T07:10:26;2.13;;;1.08;;
42906;SDS011;28552;51.146;6.576;2022-08-04T07:13:29;3.25;;;1.30;;
42906;SDS011;28552;51.146;6.576;2022-08-04T07:16:31;3.05;;;1.40;;
42906;SDS011;28552;51.146;6.576;2022-08-04T07:19:34;6.32;;;1.50;;
42906;SDS011;28552;51.146;6.576;2022-08-04T07:22:35;3.10;;;1.45;;
42906;SDS011;28552;51.146;6.576;2022-08-04T07:25:36;3.83;;;1.50;;
42906;SDS011;28552;51.146;6.576;2022-08-04T07:28:39;6.63;;;1.73;;
42906;SDS011;28552;51.146;6.576;2022-08-04T07:31:40;3.40;;;1.40;;
42906;SDS011;28552;51.146;6.576;2022-08-04T07:34:41;7.55;;;1.38;;
42906;SDS011;28552;51.146;6.576;2022-08-04T07:37:42;3.13;;;1.30;;
42906;SDS011;28552;51.146;6.576;2022-08-04T07:40:43;3.97;;;1.27;;
42906;SDS011;28552;51.146;6.576;2022-08-04T07:43:44;6.45;;;1.33;;
42906;SDS011;28552;51.146;6.576;2022-08-04T07:46:46;4.30;;;1.55;;
42906;SDS011;28552;51.146;6.576;2022-08-04T07:49:47;7.13;;;1.58;;
42906;SDS011;28552;51.146;6.576;2022-08-04T07:52:47;3.67;;;1.60;;
42906;SDS011;28552;51.146;6.576;2022-08-04T07:55:48;3.03;;;1.20;;
42906;SDS011;28552;51.146;6.576;2022-08-04T07:58:49;4.18;;;1.20;;
42906;SDS011;28552;51.146;6.576;2022-08-04T08:01:50;4.55;;;1.83;;
42906;SDS011;28552;51.146;6.576;2022-08-04T08:04:51;3.83;;;1.48;;
42906;SDS011;28552;51.146;6.576;2022-08-04T08:07:52;3.50;;;1.38;;
42906;SDS011;28552;51.146;6.576;2022-08-04T08:10:54;2.83;;;1.27;;
42906;SDS011;28552;51.146;6.576;2022-08-04T08:13:54;3.10;;;1.20;;
42906;SDS011;28552;51.146;6.576;2022-08-04T08:16:56;4.07;;;1.48;;
42906;SDS011;28552;51.146;6.576;2022-08-04T08:19:58;4.75;;;1.48;;
42906;SDS011;28552;51.146;6.576;2022-08-04T08:23:00;3.08;;;1.48;;
42906;SDS011;28552;51.146;6.576;2022-08-04T08:26:01;6.10;;;1.42;;
42906;SDS011;28552;51.146;6.576;2022-08-04T08:29:02;3.33;;;1.23;;
42906;SDS011;28552;51.146;6.576;2022-08-04T08:32:03;4.55;;;1.35;;
42906;SDS011;28552;51.146;6.576;2022-08-04T08:35:06;3.70;;;1.50;;
42906;SDS011;28552;51.146;6.576;2022-08-04T08:38:07;3.45;;;1.27;;
42906;SDS011;28552;51.146;6.576;2022-08-04T09:01:07;3.50;;;1.30;;
42906;SDS011;28552;51.146;6.576;2022-08-04T09:07:58;3.78;;;1.33;;
42906;SDS011;28552;51.146;6.576;2022-08-04T09:11:12;4.75;;;1.25;;
42906;SDS011;28552;51.146;6.576;2022-08-04T09:14:20;3.90;;;1.20;;
42906;SDS011;28552;51.146;6.576;2022-08-04T09:17:36;6.75;;;1.23;;
42906;SDS011;28552;51.146;6.576;2022-08-04T09:20:47;4.13;;;1.13;;
42906;SDS011;28552;51.146;6.576;2022-08-04T09:30:48;4.70;;;1.27;;
42906;SDS011;28552;51.146;6.576;2022-08-04T09:37:32;3.85;;;1.13;;
42906;SDS011;28552;51.146;6.576;2022-08-04T09:40:41;5.88;;;1.38;;
42906;SDS011;28552;51.146;6.576;2022-08-04T09:50:25;3.92;;;1.15;;
42906;SDS011;28552;51.146;6.576;2022-08-04T09:53:41;2.97;;;1.30;;
42906;SDS011;28552;51.146;6.576;2022-08-04T09:57:01;3.38;;;1.38;;
42906;SDS011;28552;51.146;6.576;2022-08-04T10:00:25;5.77;;;1.63;;
42906;SDS011;28552;51.146;6.576;2022-08-04T10:03:32;3.17;;;1.40;;
42906;SDS011;28552;51.146;6.576;2022-08-04T10:13:04;2.90;;;1.17;;
42906;SDS011;28552;51.146;6.576;2022-08-04T10:19:34;3.67;;;1.30;;
42906;SDS011;28552;51.146;6.576;2022-08-04T10:22:40;4.32;;;1.45;;
42906;SDS011;28552;51.146;6.576;2022-08-04T10:26:01;2.13;;;0.98;;
42906;SDS011;28552;51.146;6.576;2022-08-04T10:29:17;4.72;;;1.58;;
42906;SDS011;28552;51.146;6.576;2022-08-04T10:35:25;3.20;;;1.55;;
42906;SDS011;28552;51.146;6.576;2022-08-04T10:38:36;5.55;;;1.10;;
42906;SDS011;28552;51.146;6.576;2022-08-04T10:41:46;3.13;;;1.40;;
42906;SDS011;28552;51.146;6.576;2022-08-04T10:58:19;3.17;;;1.48;;
42906;SDS011;28552;51.146;6.576;2022-08-04T11:01:28;3.15;;;1.30;;
42906;SDS011;28552;51.146;6.576;2022-08-04T11:04:36;3.30;;;1.60;;
42906;SDS011;28552;51.146;6.576;2022-08-04T11:14:45;3.42;;;1.30;;
42906;SDS011;28552;51.146;6.576;2022-08-04T11:17:54;2.95;;;1.30;;
42906;SDS011;28552;51.146;6.576;2022-08-04T11:24:17;2.72;;;1.20;;
42906;SDS011;28552;51.146;6.576;2022-08-04T11:27:34;3.50;;;1.50;;
42906;SDS011;28552;51.146;6.576;2022-08-04T11:30:46;2.30;;;1.23;;
42906;SDS011;28552;51.146;6.576;2022-08-04T11:37:24;2.28;;;1.08;;
42906;SDS011;28552;51.146;6.576;2022-08-04T11:40:40;2.53;;;1.05;;
42906;SDS011;28552;51.146;6.576;2022-08-04T11:43:44;5.18;;;1.25;;
42906;SDS011;28552;51.146;6.576;2022-08-04T11:46:52;5.68;;;1.38;;
42906;SDS011;28552;51.146;6.576;2022-08-04T11:53:21;3.90;;;1.50;;
42906;SDS011;28552;51.146;6.576;2022-08-04T11:56:24;3.85;;;1.38;;
42906;SDS011;28552;51.146;6.576;2022-08-04T11:59:25;2.42;;;1.20;;
42906;SDS011;28552;51.146;6.576;2022-08-04T12:02:32;3.97;;;1.40;;
42906;SDS011;28552;51.146;6.576;2022-08-04T12:19:21;3.05;;;1.50;;
42906;SDS011;28552;51.146;6.576;2022-08-04T12:22:31;6.20;;;1.70;;
42906;SDS011;28552;51.146;6.576;2022-08-04T12:25:37;5.63;;;1.90;;
42906;SDS011;28552;51.146;6.576;2022-08-04T12:28:40;3.60;;;1.63;;
42906;SDS011;28552;51.146;6.576;2022-08-04T12:35:13;3.88;;;1.65;;
42906;SDS011;28552;51.146;6.576;2022-08-04T12:38:20;3.47;;;1.83;;
42906;SDS011;28552;51.146;6.576;2022-08-04T12:41:24;3.83;;;1.55;;
42906;SDS011;28552;51.146;6.576;2022-08-04T12:44:32;2.97;;;1.48;;
42906;SDS011;28552;51.146;6.576;2022-08-04T12:47:34;5.40;;;1.48;;
42906;SDS011;28552;51.146;6.576;2022-08-04T12:50:36;3.05;;;1.30;;
42906;SDS011;28552;51.146;6.576;2022-08-04T12:53:39;3.22;;;1.65;;
42906;SDS011;28552;51.146;6.576;2022-08-04T12:56:40;2.63;;;1.17;;
42906;SDS011;28552;51.146;6.576;2022-08-04T12:59:45;2.88;;;1.25;;
42906;SDS011;28552;51.146;6.576;2022-08-04T13:02:46;3.67;;;1.20;;
42906;SDS011;28552;51.146;6.576;2022-08-04T13:05:48;3.42;;;1.27;;
42906;SDS011;28552;51.146;6.576;2022-08-04T13:08:53;3.25;;;1.17;;
42906;SDS011;28552;51.146;6.576;2022-08-04T13:12:03;3.53;;;1.30;;
42906;SDS011;28552;51.146;6.576;2022-08-04T13:15:13;5.10;;;1.20;;
42906;SDS011;28552;51.146;6.576;2022-08-04T13:18:16;4.35;;;1.40;;
42906;SDS011;28552;51.146;6.576;2022-08-04T13:21:18;3.22;;;1.50;;
42906;SDS011;28552;51.146;6.576;2022-08-04T13:24:21;3.85;;;1.35;;
42906;SDS011;28552;51.146;6.576;2022-08-04T13:27:22;5.15;;;1.60;;
42906;SDS011;28552;51.146;6.576;2022-08-04T13:30:24;4.75;;;1.55;;
42906;SDS011;28552;51.146;6.576;2022-08-04T13:33:34;3.70;;;1.60;;
42906;SDS011;28552;51.146;6.576;2022-08-04T13:36:37;4.82;;;1.58;;
42906;SDS011;28552;51.146;6.576;2022-08-04T13:39:43;5.47;;;1.60;;
42906;SDS011;28552;51.146;6.576;2022-08-04T13:42:46;5.20;;;1.52;;
42906;SDS011;28552;51.146;6.576;2022-08-04T13:45:48;6.43;;;2.08;;
42906;SDS011;28552;51.146;6.576;2022-08-04T13:48:50;4.57;;;2.00;;
42906;SDS011;28552;51.146;6.576;2022-08-04T13:51:53;4.53;;;2.15;;
42906;SDS011;28552;51.146;6.576;2022-08-04T13:54:55;5.38;;;2.03;;
42906;SDS011;28552;51.146;6.576;2022-08-04T13:58:00;3.17;;;1.50;;
42906;SDS011;28552;51.146;6.576;2022-08-04T14:01:06;3.50;;;1.48;;
42906;SDS011;28552;51.146;6.576;2022-08-04T14:04:16;4.40;;;1.70;;
42906;SDS011;28552;51.146;6.576;2022-08-04T14:07:20;6.13;;;1.75;;
42906;SDS011;28552;51.146;6.576;2022-08-04T14:10:24;3.45;;;1.73;;
42906;SDS011;28552;51.146;6.576;2022-08-04T14:13:28;3.47;;;1.67;;
42906;SDS011;28552;51.146;6.576;2022-08-04T14:16:31;5.13;;;1.67;;
42906;SDS011;28552;51.146;6.576;2022-08-04T14:22:48;4.13;;;2.00;;
42906;SDS011;28552;51.146;6.576;2022-08-04T14:25:49;4.10;;;2.05;;
42906;SDS011;28552;51.146;6.576;2022-08-04T14:28:51;4.45;;;1.58;;
42906;SDS011;28552;51.146;6.576;2022-08-04T14:31:52;4.85;;;1.73;;
42906;SDS011;28552;51.146;6.576;2022-08-04T14:35:08;4.15;;;1.70;;
42906;SDS011;28552;51.146;6.576;2022-08-04T14:38:10;5.45;;;1.73;;
42906;SDS011;28552;51.146;6.576;2022-08-04T14:41:11;3.67;;;1.88;;
42906;SDS011;28552;51.146;6.576;2022-08-04T14:44:12;2.72;;;1.27;;
42906;SDS011;28552;51.146;6.576;2022-08-04T14:47:13;3.85;;;1.55;;
42906;SDS011;28552;51.146;6.576;2022-08-04T14:50:14;7.15;;;1.70;;
42906;SDS011;28552;51.146;6.576;2022-08-04T14:53:16;4.28;;;1.77;;
42906;SDS011;28552;51.146;6.576;2022-08-04T14:56:19;3.42;;;1.40;;
42906;SDS011;28552;51.146;6.576;2022-08-04T14:59:19;3.78;;;1.63;;
42906;SDS011;28552;51.146;6.576;2022-08-04T15:02:21;3.60;;;1.35;;
42906;SDS011;28552;51.146;6.576;2022-08-04T15:05:22;5.05;;;1.90;;
42906;SDS011;28552;51.146;6.576;2022-08-04T15:08:23;3.42;;;1.48;;
42906;SDS011;28552;51.146;6.576;2022-08-04T15:11:24;3.30;;;1.40;;
42906;SDS011;28552;51.146;6.576;2022-08-04T15:14:25;2.67;;;1.38;;
42906;SDS011;28552;51.146;6.576;2022-08-04T15:17:26;4.00;;;1.42;;
42906;SDS011;28552;51.146;6.576;2022-08-04T15:20:27;4.53;;;1.42;;
42906;SDS011;28552;51.146;6.576;2022-08-04T15:23:30;2.63;;;1.33;;
42906;SDS011;28552;51.146;6.576;2022-08-04T15:26:32;2.75;;;1.38;;
42906;SDS011;28552;51.146;6.576;2022-08-04T15:29:39;2.25;;;1.23;;
42906;SDS011;28552;51.146;6.576;2022-08-04T15:32:47;3.42;;;1.30;;
42906;SDS011;28552;51.146;6.576;2022-08-04T15:35:53;3.92;;;1.17;;
42906;SDS011;28552;51.146;6.576;2022-08-04T15:39:14;5.32;;;1.50;;
42906;SDS011;28552;51.146;6.576;2022-08-04T15:42:43;3.28;;;1.52;;
42906;SDS011;28552;51.146;6.576;2022-08-04T15:45:52;3.97;;;1.35;;
42906;SDS011;28552;51.146;6.576;2022-08-04T15:48:57;5.47;;;1.67;;
42906;SDS011;28552;51.146;6.576;2022-08-04T15:52:17;4.57;;;1.77;;
42906;SDS011;28552;51.146;6.576;2022-08-04T15:58:46;2.70;;;1.15;;
42906;SDS011;28552;51.146;6.576;2022-08-04T16:01:48;3.08;;;1.30;;
42906;SDS011;28552;51.146;6.576;2022-08-04T16:08:24;5.25;;;1.40;;
42906;SDS011;28552;51.146;6.576;2022-08-04T16:14:39;4.63;;;1.88;;
42906;SDS011;28552;51.146;6.576;2022-08-04T16:17:40;3.25;;;1.60;;
42906;SDS011;28552;51.146;6.576;2022-08-04T16:20:40;6.35;;;1.75;;
42906;SDS011;28552;51.146;6.576;2022-08-04T16:26:54;5.60;;;2.13;;
42906;SDS011;28552;51.146;6.576;2022-08-04T16:30:03;4.10;;;1.50;;
42906;SDS011;28552;51.146;6.576;2022-08-04T16:33:07;7.22;;;1.80;;
42906;SDS011;28552;51.146;6.576;2022-08-04T16:36:10;5.38;;;1.85;;
42906;SDS011;28552;51.146;6.576;2022-08-04T16:39:17;4.95;;;1.90;;
42906;SDS011;28552;51.146;6.576;2022-08-04T16:49:04;4.50;;;1.92;;
42906;SDS011;28552;51.146;6.576;2022-08-04T16:52:06;5.72;;;2.20;;
42906;SDS011;28552;51.146;6.576;2022-08-04T16:55:07;5.72;;;1.65;;
42906;SDS011;28552;51.146;6.576;2022-08-04T16:58:08;5.95;;;1.55;;
42906;SDS011;28552;51.146;6.576;2022-08-04T17:01:12;4.47;;;2.20;;
42906;SDS011;28552;51.146;6.576;2022-08-04T17:04:19;5.90;;;1.85;;
42906;SDS011;28552;51.146;6.576;2022-08-04T17:07:29;6.40;;;2.28;;
42906;SDS011;28552;51.146;6.576;2022-08-04T17:10:49;4.90;;;1.67;;
42906;SDS011;28552;51.146;6.576;2022-08-04T17:13:51;7.63;;;1.52;;
42906;SDS011;28552;51.146;6.576;2022-08-04T17:16:52;4.60;;;1.90;;
42906;SDS011;28552;51.146;6.576;2022-08-04T17:19:54;5.95;;;1.98;;
42906;SDS011;28552;51.146;6.576;2022-08-04T17:22:56;3.75;;;1.73;;
42906;SDS011;28552;51.146;6.576;2022-08-04T17:26:31;6.68;;;1.77;;
42906;SDS011;28552;51.146;6.576;2022-08-04T17:29:34;5.43;;;1.73;;
42906;SDS011;28552;51.146;6.576;2022-08-04T17:32:34;5.38;;;2.17;;
42906;SDS011;28552;51.146;6.576;2022-08-04T17:35:38;5.10;;;1.58;;
42906;SDS011;28552;51.146;6.576;2022-08-04T17:38:40;2.95;;;1.40;;
42906;SDS011;28552;51.146;6.576;2022-08-04T17:41:41;4.15;;;1.58;;
42906;SDS011;28552;51.146;6.576;2022-08-04T17:44:42;3.90;;;1.55;;
42906;SDS011;28552;51.146;6.576;2022-08-04T17:47:51;5.70;;;2.00;;
42906;SDS011;28552;51.146;6.576;2022-08-04T17:50:51;3.50;;;1.33;;
42906;SDS011;28552;51.146;6.576;2022-08-04T17:53:56;4.88;;;1.60;;
42906;SDS011;28552;51.146;6.576;2022-08-04T17:56:58;5.35;;;1.77;;
42906;SDS011;28552;51.146;6.576;2022-08-04T18:00:00;4.05;;;1.50;;
42906;SDS011;28552;51.146;6.576;2022-08-04T18:03:01;3.25;;;1.17;;
42906;SDS011;28552;51.146;6.576;2022-08-04T18:06:09;3.50;;;1.20;;
42906;SDS011;28552;51.146;6.576;2022-08-04T18:09:11;5.32;;;1.42;;
42906;SDS011;28552;51.146;6.576;2022-08-04T18:12:19;3.25;;;1.40;;
42906;SDS011;28552;51.146;6.576;2022-08-04T18:15:22;4.53;;;1.50;;
42906;SDS011;28552;51.146;6.576;2022-08-04T18:18:24;2.95;;;1.27;;
42906;SDS011;28552;51.146;6.576;2022-08-04T18:21:25;3.75;;;1.40;;
42906;SDS011;28552;51.146;6.576;2022-08-04T18:24:26;4.72;;;1.50;;
42906;SDS011;28552;51.146;6.576;2022-08-04T18:27:29;6.88;;;1.55;;
42906;SDS011;28552;51.146;6.576;2022-08-04T18:30:30;4.05;;;1.50;;
42906;SDS011;28552;51.146;6.576;2022-08-04T18:33:31;3.05;;;1.30;;
42906;SDS011;28552;51.146;6.576;2022-08-04T18:36:32;5.05;;;1.55;;
42906;SDS011;28552;51.146;6.576;2022-08-04T18:39:33;3.88;;;1.52;;
42906;SDS011;28552;51.146;6.576;2022-08-04T18:42:34;3.78;;;1.58;;
42906;SDS011;28552;51.146;6.576;2022-08-04T18:45:35;3.70;;;1.45;;
42906;SDS011;28552;51.146;6.576;2022-08-04T18:48:35;3.83;;;1.23;;
42906;SDS011;28552;51.146;6.576;2022-08-04T18:51:36;4.60;;;1.75;;
42906;SDS011;28552;51.146;6.576;2022-08-04T18:54:37;4.30;;;1.90;;
42906;SDS011;28552;51.146;6.576;2022-08-04T18:57:37;4.28;;;1.58;;
42906;SDS011;28552;51.146;6.576;2022-08-04T19:00:38;4.82;;;1.55;;
42906;SDS011;28552;51.146;6.576;2022-08-04T19:03:39;3.63;;;1.50;;
42906;SDS011;28552;51.146;6.576;2022-08-04T19:06:41;5.53;;;1.80;;
42906;SDS011;28552;51.146;6.576;2022-08-04T19:09:42;3.40;;;1.50;;
42906;SDS011;28552;51.146;6.576;2022-08-04T19:12:44;3.58;;;1.77;;
42906;SDS011;28552;51.146;6.576;2022-08-04T19:15:44;4.40;;;1.67;;
42906;SDS011;28552;51.146;6.576;2022-08-04T19:18:45;4.60;;;1.80;;
42906;SDS011;28552;51.146;6.576;2022-08-04T19:21:45;6.65;;;2.05;;
42906;SDS011;28552;51.146;6.576;2022-08-04T19:24:46;3.55;;;1.40;;
42906;SDS011;28552;51.146;6.576;2022-08-04T19:27:47;4.03;;;1.63;;
42906;SDS011;28552;51.146;6.576;2022-08-04T19:30:47;3.17;;;1.55;;
42906;SDS011;28552;51.146;6.576;2022-08-04T19:33:48;3.35;;;1.48;;
42906;SDS011;28552;51.146;6.576;2022-08-04T19:36:48;3.90;;;1.60;;
42906;SDS011;28552;51.146;6.576;2022-08-04T19:39:49;6.47;;;1.60;;
42906;SDS011;28552;51.146;6.576;2022-08-04T19:42:51;4.82;;;1.60;;
42906;SDS011;28552;51.146;6.576;2022-08-04T19:45:52;4.22;;;1.67;;
42906;SDS011;28552;51.146;6.576;2022-08-04T19:48:53;5.18;;;1.48;;
42906;SDS011;28552;51.146;6.576;2022-08-04T19:51:53;4.93;;;1.95;;
42906;SDS011;28552;51.146;6.576;2022-08-04T19:54:55;5.10;;;1.75;;
42906;SDS011;28552;51.146;6.576;2022-08-04T19:57:55;10.60;;;1.75;;
42906;SDS011;28552;51.146;6.576;2022-08-04T20:01:01;3.80;;;1.70;;
42906;SDS011;28552;51.146;6.576;2022-08-04T20:04:01;4.60;;;1.60;;
42906;SDS011;28552;51.146;6.576;2022-08-04T20:07:02;7.15;;;1.42;;
42906;SDS011;28552;51.146;6.576;2022-08-04T20:10:03;5.43;;;1.52;;
42906;SDS011;28552;51.146;6.576;2022-08-04T20:13:05;4.75;;;1.85;;
42906;SDS011;28552;51.146;6.576;2022-08-04T20:16:06;5.63;;;2.08;;
42906;SDS011;28552;51.146;6.576;2022-08-04T20:19:06;6.50;;;1.90;;
42906;SDS011;28552;51.146;6.576;2022-08-04T20:22:07;8.20;;;1.60;;
42906;SDS011;28552;51.146;6.576;2022-08-04T20:25:08;4.03;;;1.65;;
42906;SDS011;28552;51.146;6.576;2022-08-04T20:28:09;5.00;;;1.83;;
42906;SDS011;28552;51.146;6.576;2022-08-04T20:31:10;5.65;;;1.77;;
42906;SDS011;28552;51.146;6.576;2022-08-04T20:34:11;4.43;;;1.60;;
42906;SDS011;28552;51.146;6.576;2022-08-04T20:37:11;5.20;;;2.10;;
42906;SDS011;28552;51.146;6.576;2022-08-04T20:40:12;5.38;;;2.33;;
42906;SDS011;28552;51.146;6.576;2022-08-04T20:43:13;9.52;;;1.80;;
42906;SDS011;28552;51.146;6.576;2022-08-04T20:46:14;3.45;;;1.63;;
42906;SDS011;28552;51.146;6.576;2022-08-04T20:49:14;6.65;;;1.75;;
42906;SDS011;28552;51.146;6.576;2022-08-04T20:52:15;5.55;;;1.50;;
42906;SDS011;28552;51.146;6.576;2022-08-04T20:55:15;3.97;;;1.80;;
42906;SDS011;28552;51.146;6.576;2022-08-04T20:58:16;6.38;;;1.98;;
42906;SDS011;28552;51.146;6.576;2022-08-04T21:01:16;3.70;;;1.70;;
42906;SDS011;28552;51.146;6.576;2022-08-04T21:04:17;4.00;;;1.27;;
42906;SDS011;28552;51.146;6.576;2022-08-04T21:07:32;3.42;;;1.42;;
42906;SDS011;28552;51.146;6.576;2022-08-04T21:10:33;5.43;;;1.35;;
42906;SDS011;28552;51.146;6.576;2022-08-04T21:13:34;3.40;;;1.30;;
42906;SDS011;28552;51.146;6.576;2022-08-04T21:16:34;3.70;;;1.35;;
42906;SDS011;28552;51.146;6.576;2022-08-04T21:19:35;3.22;;;1.20;;
42906;SDS011;28552;51.146;6.576;2022-08-04T21:22:35;3.15;;;1.10;;
42906;SDS011;28552;51.146;6.576;2022-08-04T21:25:36;2.28;;;1.17;;
42906;SDS011;28552;51.146;6.576;2022-08-04T21:28:36;3.25;;;1.08;;
42906;SDS011;28552;51.146;6.576;2022-08-04T21:31:37;3.72;;;1.10;;
42906;SDS011;28552;51.146;6.576;2022-08-04T21:34:38;2.63;;;0.98;;
42906;SDS011;28552;51.146;6.576;2022-08-04T21:37:38;1.35;;;0.60;;
42906;SDS011;28552;51.146;6.576;2022-08-04T21:40:51;3.08;;;1.25;;
42906;SDS011;28552;51.146;6.576;2022-08-04T21:43:52;2.47;;;1.00;;
42906;SDS011;28552;51.146;6.576;2022-08-04T21:46:53;2.22;;;0.90;;
42906;SDS011;28552;51.146;6.576;2022-08-04T21:49:54;4.80;;;1.27;;
42906;SDS011;28552;51.146;6.576;2022-08-04T21:52:54;5.25;;;1.83;;
42906;SDS011;28552;51.146;6.576;2022-08-04T21:55:55;4.28;;;0.93;;
42906;SDS011;28552;51.146;6.576;2022-08-04T21:58:55;2.17;;;1.05;;
42906;SDS011;28552;51.146;6.576;2022-08-04T22:01:57;3.50;;;1.20;;
42906;SDS011;28552;51.146;6.576;2022-08-04T22:04:59;3.20;;;1.25;;
42906;SDS011;28552;51.146;6.576;2022-08-04T22:07:59;2.38;;;1.20;;
42906;SDS011;28552;51.146;6.576;2022-08-04T22:11:00;4.30;;;0.95;;
42906;SDS011;28552;51.146;6.576;2022-08-04T22:14:03;6.07;;;1.20;;
42906;SDS011;28552;51.146;6.576;2022-08-04T22:17:06;3.20;;;1.13;;
42906;SDS011;28552;51.146;6.576;2022-08-04T22:20:07;2.90;;;1.02;;
42906;SDS011;28552;51.146;6.576;2022-08-04T22:23:09;2.63;;;1.15;;
42906;SDS011;28552;51.146;6.576;2022-08-04T22:26:12;4.90;;;1.70;;
42906;SDS011;28552;51.146;6.576;2022-08-04T22:29:13;4.20;;;1.40;;
42906;SDS011;28552;51.146;6.576;2022-08-04T22:32:14;3.85;;;1.10;;
42906;SDS011;28552;51.146;6.576;2022-08-04T22:35:15;2.92;;;1.40;;
42906;SDS011;28552;51.146;6.576;2022-08-04T22:38:17;3.33;;;1.30;;